Pendleton, North Carolina
Current Conditions -  °F | °C
As of 7:35 AM on Sunday 21 Dec 2014 (Local Time) from KASJ Reporting Station
Haze Haze  
Wind Chill: 31°   Ceiling: 7000
Heat Index: 31°   Visibility: 5mi
Dew Point: 30°   Wind: 0mph
Humidity: 93%   Direction: NA
Pressure: 30.32"   Gusts: NA
Location:  36.47°N, 77.2°W
Report Text: KASJ 211235Z AUTO 00000KT 5SM BR OVC070 00/M01 A3032 RMK AO2 T10031013
Loading
Personal Weather Stations






























Interactive Weather Map New forecast layout! Learn more

10-Day Weather Forecast

Advertisements
Track Severe Weather on mobile